Huvudsida
METAR-TAF:

METAR-TAF

Flygplatser :

Milano-Malpensa flygplats

Milano, Italien

latitud: 45-37N, longitud: 008-44E, höjd: 234 m

Aktuellt väderrapport

Denna rapport gjordes för 10 minuter sedan, klockan 16:20 UTC
Vind 3 kt från nord/nordost
Temperatur 17°C
Fuktighet 42%
Tryck 1010 hPa
Sikt 10 km eller mer
Brutna moln på en höjd av 9000 ft

METAR: LIMC 291620Z 02003KT 9999 BKN090 17/04 Q1010 NOSIG

Tid: 18:30 (16:30 UTC)

Väderprognos

Denna rapport gjordes för 5 timmar och 30 minuter sedan, klockan 11:00 UTC
Prognos gäller från 29 kl. 12 UTC till 30 kl. 18 UTC
Vind 5 kt varierande vindriktning
Sikt 10 km eller mer
Spridda moln på en höjd av 4000 ft
Temporärt
från 29 kl. 21 UTC till 30 kl. 12 UTC
Sikt: 4000 m
regnskurar

TAF: LIMC 291100Z 2912/3018 VRB05KT 9999 SCT040 TEMPO 2921/3012 4000 SHRA

Aktuella väderrapporter och prognoser från 4000 flygplatser (METAR- och TAF-rapporter).

De tillgängliga stationerna syns som gula och röda prickar på kartan.

För musen över prickarna för att se namnen på stationerna.

Klicka sedan för att få väderrapporter och prognoser.

För att ändra kartan: Klicka på de gröna knapparna med ett svart kors på för att zooma in; den gröna knappen med ett streck på för att zooma ut; eller på de gröna pilarna för angränsande kartor.


METAR-TAF: